Time,TemperatureF,DewpointF,PressureIn,WindDirection,WindDirectionDegrees,WindSpeedMPH,WindSpeedGustMPH,Humidity,HourlyPrecipIn,Conditions,Clouds,dailyrainin,SoftwareType,DateUTC
2013-04-30 00:01:00,61.0,56.1,29.98,ESE,108,0.0,0.0,84,0.00,,,0.00,VWS V14.00,2013-04-30 04:01:00,
2013-04-30 00:02:00,61.0,56.1,29.98,ESE,108,0.0,0.0,84,0.00,,,0.00,VWS V14.00,2013-04-30 04:02:00,
2013-04-30 00:04:00,61.0,56.1,29.98,ESE,108,0.0,0.0,84,0.00,,,0.00,VWS V14.00,2013-04-30 04:04:00,
2013-04-30 00:09:00,60.6,56.1,29.98,ESE,108,0.0,0.0,85,0.00,,,0.00,VWS V14.00,2013-04-30 04:09:00,
2013-04-30 00:14:00,60.6,56.1,29.98,ESE,108,0.0,0.0,85,0.00,,,0.00,VWS V14.00,2013-04-30 04:14:00,
2013-04-30 00:19:00,60.4,55.9,29.98,ESE,108,0.0,0.0,85,0.00,,,0.00,VWS V14.00,2013-04-30 04:19:00,
2013-04-30 00:24:00,60.6,56.1,29.98,ESE,108,0.0,0.0,85,0.00,,,0.00,VWS V14.00,2013-04-30 04:24:00,
2013-04-30 00:29:00,60.4,56.2,29.98,ESE,108,0.0,0.0,86,0.00,,,0.00,VWS V14.00,2013-04-30 04:29:00,
2013-04-30 00:34:00,60.3,56.1,29.98,ESE,108,0.0,0.0,86,0.00,,,0.00,VWS V14.00,2013-04-30 04:34:00,
2013-04-30 00:39:00,60.1,55.9,29.98,ESE,108,0.0,0.0,86,0.00,,,0.00,VWS V14.00,2013-04-30 04:39:00,
2013-04-30 00:44:00,60.1,55.9,29.98,ESE,108,0.0,0.0,86,0.00,,,0.00,VWS V14.00,2013-04-30 04:44:00,
2013-04-30 00:49:00,60.1,55.9,29.98,ESE,108,0.0,0.0,86,0.00,,,0.00,VWS V14.00,2013-04-30 04:49:00,
2013-04-30 00:54:00,59.9,55.7,29.98,ESE,108,0.0,0.0,86,0.00,,,0.00,VWS V14.00,2013-04-30 04:54:00,
2013-04-30 00:59:00,59.7,55.5,29.98,ESE,108,0.0,0.0,86,0.00,,,0.00,VWS V14.00,2013-04-30 04:59:00,
2013-04-30 01:04:00,59.7,55.5,29.98,ESE,108,0.0,0.0,86,0.00,,,0.00,VWS V14.00,2013-04-30 05:04:00,
2013-04-30 01:09:00,59.5,55.3,29.98,ESE,108,0.0,0.0,86,0.00,,,0.00,VWS V14.00,2013-04-30 05:09:00,
2013-04-30 01:14:00,59.7,55.8,29.98,ESE,108,0.0,0.0,87,0.00,,,0.00,VWS V14.00,2013-04-30 05:14:00,
2013-04-30 01:19:00,59.7,56.2,29.98,ESE,108,0.0,0.0,88,0.00,,,0.00,VWS V14.00,2013-04-30 05:19:00,
2013-04-30 01:24:00,59.5,56.0,29.98,ESE,108,0.0,0.0,88,0.00,,,0.00,VWS V14.00,2013-04-30 05:24:00,
2013-04-30 01:29:00,59.4,55.8,29.98,ESE,108,0.0,0.0,88,0.00,,,0.00,VWS V14.00,2013-04-30 05:29:00,
2013-04-30 01:35:00,59.4,55.8,29.98,ESE,108,0.0,0.0,88,0.00,,,0.00,VWS V14.00,2013-04-30 05:35:00,
2013-04-30 01:40:00,59.4,55.8,29.98,ESE,108,0.0,0.0,88,0.00,,,0.00,VWS V14.00,2013-04-30 05:40:00,
2013-04-30 01:45:00,59.4,55.8,29.98,ESE,108,0.0,0.0,88,0.00,,,0.00,VWS V14.00,2013-04-30 05:45:00,
2013-04-30 01:50:00,59.2,55.6,29.98,ESE,108,0.0,0.0,88,0.00,,,0.00,VWS V14.00,2013-04-30 05:50:00,
2013-04-30 01:55:00,59.2,55.6,29.98,ESE,108,0.0,0.0,88,0.00,,,0.00,VWS V14.00,2013-04-30 05:55:00,
2013-04-30 02:00:00,59.0,55.5,29.98,ESE,108,0.0,0.0,88,0.00,,,0.00,VWS V14.00,2013-04-30 06:00:00,
2013-04-30 02:05:00,59.0,55.5,29.98,ESE,108,0.0,0.0,88,0.00,,,0.00,VWS V14.00,2013-04-30 06:05:00,
2013-04-30 02:10:00,59.0,55.5,29.98,ESE,108,0.0,0.0,88,0.00,,,0.00,VWS V14.00,2013-04-30 06:10:00,
2013-04-30 02:15:00,58.8,55.3,29.98,ESE,108,0.0,0.0,88,0.00,,,0.00,VWS V14.00,2013-04-30 06:15:00,
2013-04-30 02:20:00,58.8,55.3,29.98,ESE,108,0.0,0.0,88,0.00,,,0.00,VWS V14.00,2013-04-30 06:20:00,
2013-04-30 02:25:00,58.8,55.3,29.98,ESE,108,0.0,0.0,88,0.00,,,0.00,VWS V14.00,2013-04-30 06:25:00,
2013-04-30 02:30:00,58.8,55.3,29.98,ESE,108,0.0,0.0,88,0.00,,,0.00,VWS V14.00,2013-04-30 06:30:00,
2013-04-30 02:35:00,58.8,55.6,29.98,ESE,108,0.0,0.0,89,0.00,,,0.00,VWS V14.00,2013-04-30 06:35:00,
2013-04-30 02:40:00,58.8,55.6,29.98,ESE,108,0.0,0.0,89,0.00,,,0.00,VWS V14.00,2013-04-30 06:40:00,
2013-04-30 02:45:00,58.8,55.6,29.98,ESE,108,0.0,0.0,89,0.00,,,0.00,VWS V14.00,2013-04-30 06:45:00,
2013-04-30 02:50:00,59.0,55.8,29.98,ESE,108,0.0,0.0,89,0.00,,,0.00,VWS V14.00,2013-04-30 06:50:00,
2013-04-30 02:55:00,58.8,55.6,29.98,ESE,108,0.0,0.0,89,0.00,,,0.00,VWS V14.00,2013-04-30 06:55:00,
2013-04-30 03:01:00,58.6,55.4,29.98,ESE,108,0.0,0.0,89,0.00,,,0.00,VWS V14.00,2013-04-30 07:01:00,
2013-04-30 03:06:00,58.5,55.2,29.98,ESE,108,0.0,0.0,89,0.00,,,0.00,VWS V14.00,2013-04-30 07:06:00,
2013-04-30 03:11:00,58.5,55.2,29.98,ESE,108,0.0,0.0,89,0.00,,,0.00,VWS V14.00,2013-04-30 07:11:00,
2013-04-30 03:16:00,58.3,55.1,29.98,ESE,108,0.0,0.0,89,0.00,,,0.00,VWS V14.00,2013-04-30 07:16:00,
2013-04-30 03:21:00,58.1,54.9,29.98,ESE,108,0.0,0.0,89,0.00,,,0.00,VWS V14.00,2013-04-30 07:21:00,
2013-04-30 03:26:00,58.1,54.9,29.98,ESE,108,0.0,0.0,89,0.00,,,0.00,VWS V14.00,2013-04-30 07:26:00,
2013-04-30 03:31:00,58.1,54.9,29.98,ESE,108,0.0,0.0,89,0.00,,,0.00,VWS V14.00,2013-04-30 07:31:00,
2013-04-30 03:36:00,58.1,54.9,29.98,ESE,108,0.0,0.0,89,0.00,,,0.00,VWS V14.00,2013-04-30 07:36:00,
2013-04-30 03:41:00,58.1,54.9,29.98,ESE,108,0.0,0.0,89,0.00,,,0.00,VWS V14.00,2013-04-30 07:41:00,
2013-04-30 03:47:00,58.1,54.9,29.98,ESE,108,0.0,0.0,89,0.00,,,0.00,VWS V14.00,2013-04-30 07:47:00,
2013-04-30 03:52:00,57.9,55.0,29.98,ESE,108,0.0,0.0,90,0.00,,,0.00,VWS V14.00,2013-04-30 07:52:00,
2013-04-30 03:57:00,57.9,55.0,29.98,ESE,108,0.0,0.0,90,0.00,,,0.00,VWS V14.00,2013-04-30 07:57:00,
2013-04-30 04:02:00,57.7,54.8,29.98,ESE,108,0.0,0.0,90,0.00,,,0.00,VWS V14.00,2013-04-30 08:02:00,
2013-04-30 04:07:00,57.7,54.8,29.98,ESE,108,0.0,0.0,90,0.00,,,0.00,VWS V14.00,2013-04-30 08:07:00,
2013-04-30 04:12:00,57.6,54.7,29.98,ESE,108,0.0,0.0,90,0.00,,,0.00,VWS V14.00,2013-04-30 08:12:00,
2013-04-30 04:17:00,57.6,54.7,29.98,ESE,108,0.0,0.0,90,0.00,,,0.00,VWS V14.00,2013-04-30 08:17:00,
2013-04-30 04:22:00,57.4,54.2,29.98,ESE,108,0.0,0.0,89,0.00,,,0.00,VWS V14.00,2013-04-30 08:22:00,
2013-04-30 04:27:00,57.4,54.5,29.98,ESE,108,0.0,0.0,90,0.00,,,0.00,VWS V14.00,2013-04-30 08:27:00,
2013-04-30 04:32:00,57.2,54.0,29.98,ESE,108,0.0,0.0,89,0.00,,,0.00,VWS V14.00,2013-04-30 08:32:00,
2013-04-30 04:37:00,57.2,54.0,30.01,ESE,108,0.0,0.0,89,0.00,,,0.00,VWS V14.00,2013-04-30 08:37:00,
2013-04-30 04:42:00,57.2,54.0,30.01,ESE,108,0.0,0.0,89,0.00,,,0.00,VWS V14.00,2013-04-30 08:42:00,
2013-04-30 04:47:00,57.2,54.0,30.01,ESE,108,0.0,0.0,89,0.00,,,0.00,VWS V14.00,2013-04-30 08:47:00,
2013-04-30 04:52:00,57.0,54.1,30.01,ESE,108,0.0,0.0,90,0.00,,,0.00,VWS V14.00,2013-04-30 08:52:00,
2013-04-30 04:57:00,57.0,54.1,30.01,ESE,108,0.0,0.0,90,0.00,,,0.00,VWS V14.00,2013-04-30 08:57:00,
2013-04-30 05:02:00,57.0,54.1,30.01,ESE,108,0.0,0.0,90,0.00,,,0.00,VWS V14.00,2013-04-30 09:02:00,
2013-04-30 05:07:00,57.0,54.1,30.01,ESE,108,0.0,0.0,90,0.00,,,0.00,VWS V14.00,2013-04-30 09:07:00,
2013-04-30 05:12:00,57.2,54.3,30.01,ESE,108,0.0,0.0,90,0.00,,,0.00,VWS V14.00,2013-04-30 09:12:00,
2013-04-30 05:18:00,57.2,54.3,30.01,ESE,108,0.0,0.0,90,0.00,,,0.00,VWS V14.00,2013-04-30 09:18:00,
2013-04-30 05:23:00,57.2,54.3,30.01,ESE,108,0.0,0.0,90,0.00,,,0.00,VWS V14.00,2013-04-30 09:23:00,
2013-04-30 05:28:00,57.2,54.3,30.01,ESE,108,0.0,0.0,90,0.00,,,0.00,VWS V14.00,2013-04-30 09:28:00,
2013-04-30 05:33:00,57.2,54.3,30.01,ESE,108,0.0,0.0,90,0.00,,,0.00,VWS V14.00,2013-04-30 09:33:00,
2013-04-30 05:38:00,57.2,54.3,30.01,ESE,108,0.0,0.0,90,0.00,,,0.00,VWS V14.00,2013-04-30 09:38:00,
2013-04-30 05:43:00,57.2,54.3,30.01,ESE,109,0.0,0.0,90,0.00,,,0.00,VWS V14.00,2013-04-30 09:43:00,
2013-04-30 05:48:00,57.6,54.7,30.01,ESE,108,0.0,0.0,90,0.00,,,0.00,VWS V14.00,2013-04-30 09:48:00,
2013-04-30 05:53:00,57.7,54.8,30.01,ESE,108,0.0,0.0,90,0.00,,,0.00,VWS V14.00,2013-04-30 09:53:00,
2013-04-30 05:58:00,57.9,55.0,30.01,ESE,108,0.0,0.0,90,0.00,,,0.00,VWS V14.00,2013-04-30 09:58:00,
2013-04-30 06:03:00,58.1,55.2,30.01,ESE,108,0.0,0.0,90,0.00,,,0.00,VWS V14.00,2013-04-30 10:03:00,
2013-04-30 06:08:00,58.5,55.5,30.01,ESE,108,0.0,0.0,90,0.00,,,0.00,VWS V14.00,2013-04-30 10:08:00,
2013-04-30 06:13:00,58.5,55.5,30.01,ESE,108,0.0,0.0,90,0.00,,,0.00,VWS V14.00,2013-04-30 10:13:00,
2013-04-30 06:18:00,58.3,55.4,30.01,ESE,108,0.0,0.0,90,0.00,,,0.00,VWS V14.00,2013-04-30 10:18:00,
2013-04-30 06:23:00,58.5,55.5,30.01,ESE,108,0.0,0.0,90,0.00,,,0.00,VWS V14.00,2013-04-30 10:23:00,
2013-04-30 06:28:00,58.5,55.5,30.01,ESE,108,0.0,0.0,90,0.00,,,0.00,VWS V14.00,2013-04-30 10:28:00,
2013-04-30 06:33:00,58.6,55.7,30.01,ESE,108,0.0,0.0,90,0.00,,,0.00,VWS V14.00,2013-04-30 10:33:00,
2013-04-30 06:38:00,58.6,55.7,30.03,ESE,108,0.0,0.0,90,0.00,,,0.00,VWS V14.00,2013-04-30 10:38:00,
2013-04-30 06:43:00,58.8,55.9,30.03,ESE,108,0.0,0.0,90,0.00,,,0.00,VWS V14.00,2013-04-30 10:43:00,
2013-04-30 06:48:00,58.8,55.9,30.03,ESE,108,0.0,0.0,90,0.00,,,0.00,VWS V14.00,2013-04-30 10:48:00,
2013-04-30 06:54:00,58.8,55.9,30.03,ESE,108,0.0,0.0,90,0.00,,,0.00,VWS V14.00,2013-04-30 10:54:00,
2013-04-30 06:59:00,59.0,56.1,30.03,ESE,108,0.0,0.0,90,0.00,,,0.00,VWS V14.00,2013-04-30 10:59:00,
2013-04-30 07:04:00,59.0,56.1,30.03,ESE,108,0.0,0.0,90,0.00,,,0.00,VWS V14.00,2013-04-30 11:04:00,
2013-04-30 07:09:00,59.0,56.1,30.03,ESE,108,0.0,0.0,90,0.00,,,0.00,VWS V14.00,2013-04-30 11:09:00,
2013-04-30 07:14:00,59.2,56.2,30.03,ESE,108,0.0,0.0,90,0.00,,,0.00,VWS V14.00,2013-04-30 11:14:00,
2013-04-30 07:19:00,59.4,56.4,30.03,ESE,108,0.0,0.0,90,0.00,,,0.00,VWS V14.00,2013-04-30 11:19:00,
2013-04-30 07:24:00,59.4,56.4,30.03,ESE,108,0.0,0.0,90,0.00,,,0.00,VWS V14.00,2013-04-30 11:24:00,
2013-04-30 07:29:00,59.5,56.6,30.03,ESE,108,0.0,0.0,90,0.00,,,0.00,VWS V14.00,2013-04-30 11:29:00,
2013-04-30 07:34:00,59.7,56.8,30.03,ESE,108,0.0,0.0,90,0.00,,,0.00,VWS V14.00,2013-04-30 11:34:00,
2013-04-30 07:39:00,59.7,56.8,30.03,ESE,108,0.0,0.0,90,0.00,,,0.00,VWS V14.00,2013-04-30 11:39:00,
2013-04-30 07:44:00,60.1,57.1,30.03,ESE,108,0.0,0.0,90,0.00,,,0.00,VWS V14.00,2013-04-30 11:44:00,
2013-04-30 07:49:00,60.3,57.3,30.03,ESE,108,0.0,0.0,90,0.00,,,0.00,VWS V14.00,2013-04-30 11:49:00,
2013-04-30 07:54:00,60.4,57.5,30.03,ESE,108,0.0,0.0,90,0.00,,,0.00,VWS V14.00,2013-04-30 11:54:00,
2013-04-30 07:59:00,60.8,57.8,30.03,ESE,108,0.0,0.0,90,0.00,,,0.00,VWS V14.00,2013-04-30 11:59:00,
2013-04-30 08:04:00,61.0,58.0,30.06,ESE,108,0.0,0.0,90,0.00,,,0.00,VWS V14.00,2013-04-30 12:04:00,
2013-04-30 08:10:00,61.3,58.4,30.06,East,81,0.0,0.0,90,0.00,,,0.00,VWS V14.00,2013-04-30 12:10:00,
2013-04-30 08:15:00,61.2,58.2,30.06,ENE,72,0.0,0.0,90,0.00,,,0.00,VWS V14.00,2013-04-30 12:15:00,
2013-04-30 08:20:00,61.7,58.7,30.06,ENE,72,0.0,0.0,90,0.00,,,0.00,VWS V14.00,2013-04-30 12:20:00,
2013-04-30 08:25:00,61.7,58.7,30.06,North,357,2.2,2.7,90,0.00,,,0.00,VWS V14.00,2013-04-30 12:25:00,
2013-04-30 08:30:00,61.7,58.7,30.06,North,2,0.0,2.7,90,0.00,,,0.00,VWS V14.00,2013-04-30 12:30:00,
2013-04-30 08:35:00,61.9,58.9,30.06,North,2,0.0,0.0,90,0.00,,,0.00,VWS V14.00,2013-04-30 12:35:00,
2013-04-30 08:40:00,62.4,59.5,30.06,NE,38,0.0,2.2,90,0.00,,,0.00,VWS V14.00,2013-04-30 12:40:00,
2013-04-30 08:45:00,62.2,59.3,30.06,North,357,0.0,0.0,90,0.00,,,0.00,VWS V14.00,2013-04-30 12:45:00,
2013-04-30 08:50:00,63.1,59.8,30.06,North,357,0.0,0.0,89,0.00,,,0.00,VWS V14.00,2013-04-30 12:50:00,
2013-04-30 08:55:00,63.5,60.2,30.06,North,357,0.0,0.0,89,0.00,,,0.00,VWS V14.00,2013-04-30 12:55:00,
2013-04-30 09:00:00,63.5,60.2,30.06,North,357,0.0,0.0,89,0.00,,,0.00,VWS V14.00,2013-04-30 13:00:00,
2013-04-30 09:05:00,63.9,60.6,30.06,North,357,0.0,0.0,89,0.00,,,0.00,VWS V14.00,2013-04-30 13:05:00,
2013-04-30 09:10:00,64.4,61.1,30.06,North,357,0.0,0.0,89,0.00,,,0.00,VWS V14.00,2013-04-30 13:10:00,
2013-04-30 09:15:00,64.4,60.8,30.06,North,357,0.0,0.0,88,0.00,,,0.00,VWS V14.00,2013-04-30 13:15:00,
2013-04-30 09:20:00,64.9,61.3,30.06,North,357,0.0,0.0,88,0.00,,,0.00,VWS V14.00,2013-04-30 13:20:00,
2013-04-30 09:25:00,64.8,60.8,30.06,North,357,0.0,0.0,87,0.00,,,0.00,VWS V14.00,2013-04-30 13:25:00,
2013-04-30 09:30:00,65.1,60.8,30.06,North,357,0.0,0.0,86,0.00,,,0.00,VWS V14.00,2013-04-30 13:30:00,
2013-04-30 09:35:00,65.7,61.4,30.06,North,2,2.2,3.1,86,0.00,,,0.00,VWS V14.00,2013-04-30 13:35:00,
2013-04-30 09:40:00,65.8,61.5,30.06,North,357,4.9,4.9,86,0.00,,,0.00,VWS V14.00,2013-04-30 13:40:00,
2013-04-30 09:46:00,65.8,61.2,30.06,North,353,0.0,0.0,85,0.00,,,0.00,VWS V14.00,2013-04-30 13:46:00,
2013-04-30 09:51:00,65.7,60.7,30.06,North,353,0.0,0.0,84,0.00,,,0.00,VWS V14.00,2013-04-30 13:51:00,
2013-04-30 09:56:00,66.2,61.2,30.06,North,353,0.0,0.0,84,0.00,,,0.00,VWS V14.00,2013-04-30 13:56:00,
2013-04-30 10:01:00,66.4,61.4,30.06,North,7,0.0,2.2,84,0.00,,,0.00,VWS V14.00,2013-04-30 14:01:00,
2013-04-30 10:06:00,66.7,61.8,30.06,North,357,0.0,2.2,84,0.00,,,0.00,VWS V14.00,2013-04-30 14:06:00,
2013-04-30 10:11:00,67.3,62.0,30.06,ESE,121,0.0,0.0,83,0.00,,,0.00,VWS V14.00,2013-04-30 14:11:00,
2013-04-30 10:16:00,67.3,60.9,30.06,NE,36,0.0,4.0,80,0.00,,,0.00,VWS V14.00,2013-04-30 14:16:00,
2013-04-30 10:21:00,67.3,60.5,30.06,North,0,0.0,0.0,79,0.00,,,0.00,VWS V14.00,2013-04-30 14:21:00,
2013-04-30 10:26:00,67.5,60.0,30.06,North,0,2.2,2.7,77,0.00,,,0.00,VWS V14.00,2013-04-30 14:26:00,
2013-04-30 10:31:00,67.8,59.2,30.06,NNW,329,0.0,0.0,74,0.00,,,0.00,VWS V14.00,2013-04-30 14:31:00,
2013-04-30 10:36:00,68.4,58.6,30.06,North,357,0.0,0.0,71,0.00,,,0.00,VWS V14.00,2013-04-30 14:36:00,
2013-04-30 10:41:00,68.7,57.7,30.06,SE,143,0.0,0.0,68,0.00,,,0.00,VWS V14.00,2013-04-30 14:41:00,
2013-04-30 10:46:00,68.7,56.5,30.06,SE,143,0.0,0.0,65,0.00,,,0.00,VWS V14.00,2013-04-30 14:46:00,
2013-04-30 10:51:00,69.1,56.0,30.06,NE,52,0.0,0.0,63,0.00,,,0.00,VWS V14.00,2013-04-30 14:51:00,
2013-04-30 10:56:00,69.4,55.0,30.06,NNE,18,0.0,3.6,60,0.00,,,0.00,VWS V14.00,2013-04-30 14:56:00,
2013-04-30 11:01:00,70.0,55.0,30.06,NNW,334,0.0,3.1,59,0.00,,,0.00,VWS V14.00,2013-04-30 15:01:00,
2013-04-30 11:06:00,70.3,53.9,30.06,North,0,0.0,0.0,56,0.00,,,0.00,VWS V14.00,2013-04-30 15:06:00,
2013-04-30 11:11:00,71.4,54.4,30.06,North,1,4.5,4.9,55,0.00,,,0.00,VWS V14.00,2013-04-30 15:11:00,
2013-04-30 11:17:00,71.8,51.6,30.06,North,10,2.2,3.1,49,0.00,,,0.00,VWS V14.00,2013-04-30 15:17:00,
2013-04-30 11:22:00,71.8,51.1,30.06,North,353,3.6,4.9,48,0.00,,,0.00,VWS V14.00,2013-04-30 15:22:00,
2013-04-30 11:27:00,73.2,52.9,30.06,North,353,0.0,3.1,49,0.00,,,0.00,VWS V14.00,2013-04-30 15:27:00,
2013-04-30 11:32:00,74.1,50.8,30.06,NNW,335,0.0,3.1,44,0.00,,,0.00,VWS V14.00,2013-04-30 15:32:00,
2013-04-30 11:37:00,75.0,51.7,30.06,NNE,23,2.2,2.2,44,0.00,,,0.00,VWS V14.00,2013-04-30 15:37:00,
2013-04-30 11:42:00,74.8,49.6,30.06,NNE,23,0.0,0.0,41,0.00,,,0.00,VWS V14.00,2013-04-30 15:42:00,
2013-04-30 11:47:00,75.2,49.9,30.06,ENE,68,0.0,0.0,41,0.00,,,0.00,VWS V14.00,2013-04-30 15:47:00,
2013-04-30 11:52:00,75.2,49.9,30.06,North,0,0.0,0.0,41,0.00,,,0.00,VWS V14.00,2013-04-30 15:52:00,
2013-04-30 11:57:00,75.7,50.4,30.06,NE,52,2.2,2.7,41,0.00,,,0.00,VWS V14.00,2013-04-30 15:57:00,
2013-04-30 12:03:00,77.2,48.2,30.06,North,2,4.0,5.4,36,0.00,,,0.00,VWS V14.00,2013-04-30 16:03:00,
2013-04-30 12:08:00,77.5,50.0,30.06,North,353,2.2,3.6,38,0.00,,,0.00,VWS V14.00,2013-04-30 16:08:00,
2013-04-30 12:13:00,76.8,49.3,30.06,North,5,2.7,4.0,38,0.00,,,0.00,VWS V14.00,2013-04-30 16:13:00,
2013-04-30 12:18:00,75.9,47.1,30.06,NNE,15,3.1,3.6,36,0.00,,,0.00,VWS V14.00,2013-04-30 16:18:00,
2013-04-30 12:23:00,74.8,48.2,30.06,NNE,30,0.0,2.7,39,0.00,,,0.00,VWS V14.00,2013-04-30 16:23:00,
2013-04-30 12:28:00,74.8,49.6,30.06,ENE,69,0.0,0.0,41,0.00,,,0.00,VWS V14.00,2013-04-30 16:28:00,
2013-04-30 12:33:00,74.8,47.6,30.06,North,357,0.0,0.0,38,0.00,,,0.00,VWS V14.00,2013-04-30 16:33:00,
2013-04-30 12:38:00,75.0,49.8,30.06,ESE,110,0.0,2.7,41,0.00,,,0.00,VWS V14.00,2013-04-30 16:38:00,
2013-04-30 12:43:00,74.8,49.6,30.06,East,81,0.0,0.0,41,0.00,,,0.00,VWS V14.00,2013-04-30 16:43:00,
2013-04-30 12:48:00,75.4,50.7,30.06,East,80,0.0,0.0,42,0.00,,,0.00,VWS V14.00,2013-04-30 16:48:00,
2013-04-30 12:53:00,76.3,49.5,30.06,NE,36,0.0,2.7,39,0.00,,,0.00,VWS V14.00,2013-04-30 16:53:00,
2013-04-30 12:58:00,76.6,49.2,30.06,North,357,3.1,3.1,38,0.00,,,0.00,VWS V14.00,2013-04-30 16:58:00,
2013-04-30 13:03:00,78.3,48.4,30.06,NNE,14,2.2,2.7,35,0.00,,,0.00,VWS V14.00,2013-04-30 17:03:00,
2013-04-30 13:08:00,78.6,46.3,30.03,NNW,345,2.7,2.7,32,0.00,,,0.00,VWS V14.00,2013-04-30 17:08:00,
2013-04-30 13:13:00,78.6,47.1,30.03,East,96,0.0,2.7,33,0.00,,,0.00,VWS V14.00,2013-04-30 17:13:00,
2013-04-30 13:18:00,77.9,47.3,30.03,ESE,110,0.0,0.0,34,0.00,,,0.00,VWS V14.00,2013-04-30 17:18:00,
2013-04-30 13:23:00,78.4,47.0,30.03,North,5,0.0,2.7,33,0.00,,,0.00,VWS V14.00,2013-04-30 17:23:00,
2013-04-30 13:29:00,77.9,47.3,30.03,North,9,0.0,0.0,34,0.00,,,0.00,VWS V14.00,2013-04-30 17:29:00,
2013-04-30 13:34:00,77.9,47.3,30.03,NE,36,0.0,2.7,34,0.00,,,0.00,VWS V14.00,2013-04-30 17:34:00,
2013-04-30 13:39:00,77.9,48.1,30.03,East,87,0.0,0.0,35,0.00,,,0.00,VWS V14.00,2013-04-30 17:39:00,
2013-04-30 13:44:00,79.3,50.1,30.03,SE,145,2.2,4.0,36,0.00,,,0.00,VWS V14.00,2013-04-30 17:44:00,
2013-04-30 13:49:00,80.2,47.7,30.03,ENE,59,0.0,5.8,32,0.00,,,0.00,VWS V14.00,2013-04-30 17:49:00,
2013-04-30 13:54:00,80.8,49.0,30.03,ESE,102,3.1,3.1,33,0.00,,,0.00,VWS V14.00,2013-04-30 17:54:00,
2013-04-30 13:59:00,82.0,48.5,30.03,North,0,2.7,2.7,31,0.00,,,0.00,VWS V14.00,2013-04-30 17:59:00,
2013-04-30 14:04:00,82.0,47.6,30.03,NNW,335,0.0,3.1,30,0.00,,,0.00,VWS V14.00,2013-04-30 18:04:00,
2013-04-30 14:09:00,81.1,46.8,30.03,East,79,0.0,4.9,30,0.00,,,0.00,VWS V14.00,2013-04-30 18:09:00,
2013-04-30 14:14:00,80.6,47.2,30.03,East,95,4.0,5.4,31,0.00,,,0.00,VWS V14.00,2013-04-30 18:14:00,
2013-04-30 14:19:00,82.0,47.6,30.03,SSE,157,2.7,6.3,30,0.00,,,0.00,VWS V14.00,2013-04-30 18:19:00,
2013-04-30 14:24:00,82.6,47.1,30.03,East,97,0.0,4.0,29,0.00,,,0.00,VWS V14.00,2013-04-30 18:24:00,
2013-04-30 14:29:00,83.3,48.7,30.03,East,100,0.0,3.6,30,0.00,,,0.00,VWS V14.00,2013-04-30 18:29:00,
2013-04-30 14:34:00,82.8,47.3,30.03,ENE,75,0.0,0.0,29,0.00,,,0.00,VWS V14.00,2013-04-30 18:34:00,
2013-04-30 14:39:00,82.4,47.9,30.03,ESE,105,0.0,2.7,30,0.00,,,0.00,VWS V14.00,2013-04-30 18:39:00,
2013-04-30 14:44:00,83.3,48.7,30.03,ESE,115,2.7,2.7,30,0.00,,,0.00,VWS V14.00,2013-04-30 18:44:00,
2013-04-30 14:49:00,83.3,47.8,30.03,ESE,111,2.7,3.6,29,0.00,,,0.00,VWS V14.00,2013-04-30 18:49:00,
2013-04-30 14:54:00,84.6,46.9,30.03,NE,53,0.0,4.0,27,0.00,,,0.00,VWS V14.00,2013-04-30 18:54:00,
2013-04-30 14:59:00,84.7,47.1,30.03,SSE,150,0.0,2.2,27,0.00,,,0.00,VWS V14.00,2013-04-30 18:59:00,
2013-04-30 15:05:00,83.5,47.0,30.03,SE,138,0.0,3.6,28,0.00,,,0.00,VWS V14.00,2013-04-30 19:05:00,
2013-04-30 15:10:00,84.4,46.8,30.03,SE,135,3.6,3.6,27,0.00,,,0.00,VWS V14.00,2013-04-30 19:10:00,
2013-04-30 15:15:00,86.2,42.9,30.03,SE,135,3.1,3.1,22,0.00,,,0.00,VWS V14.00,2013-04-30 19:15:00,
2013-04-30 15:20:00,87.1,43.7,30.03,East,86,0.0,0.0,22,0.00,,,0.00,VWS V14.00,2013-04-30 19:20:00,
2013-04-30 15:25:00,87.6,44.1,30.03,SE,145,3.1,3.6,22,0.00,,,0.00,VWS V14.00,2013-04-30 19:25:00,
2013-04-30 15:30:00,88.2,43.3,30.03,ESE,106,3.6,4.0,21,0.00,,,0.00,VWS V14.00,2013-04-30 19:30:00,
2013-04-30 15:35:00,88.2,43.3,30.03,ESE,123,2.7,3.1,21,0.00,,,0.00,VWS V14.00,2013-04-30 19:35:00,
2013-04-30 15:40:00,87.6,42.9,30.03,East,92,2.2,3.1,21,0.00,,,0.00,VWS V14.00,2013-04-30 19:40:00,
2013-04-30 15:45:00,85.3,42.2,30.03,East,88,2.7,4.0,22,0.00,,,0.00,VWS V14.00,2013-04-30 19:45:00,
2013-04-30 15:50:00,83.7,40.8,30.03,East,98,0.0,3.6,22,0.00,,,0.00,VWS V14.00,2013-04-30 19:50:00,
2013-04-30 15:55:00,82.4,42.0,30.03,South,181,2.2,2.2,24,0.00,,,0.00,VWS V14.00,2013-04-30 19:55:00,
2013-04-30 16:00:00,81.9,44.6,30.03,SE,130,2.7,2.7,27,0.00,,,0.00,VWS V14.00,2013-04-30 20:00:00,
2013-04-30 16:05:00,82.2,44.9,30.03,ESE,110,0.0,0.0,27,0.00,,,0.00,VWS V14.00,2013-04-30 20:05:00,
2013-04-30 16:10:00,82.0,44.8,30.03,ESE,110,0.0,0.0,27,0.00,,,0.00,VWS V14.00,2013-04-30 20:10:00,
2013-04-30 16:15:00,82.8,47.3,30.03,ESE,122,4.0,4.0,29,0.00,,,0.00,VWS V14.00,2013-04-30 20:15:00,
2013-04-30 16:20:00,84.9,40.7,30.03,West,260,2.2,2.2,21,0.00,,,0.00,VWS V14.00,2013-04-30 20:20:00,
2013-04-30 16:25:00,86.2,42.9,30.03,ESE,110,0.0,2.2,22,0.00,,,0.00,VWS V14.00,2013-04-30 20:25:00,
2013-04-30 16:31:00,86.5,40.8,30.03,ESE,108,3.1,3.1,20,0.00,,,0.00,VWS V14.00,2013-04-30 20:31:00,
2013-04-30 16:36:00,85.3,43.3,30.03,SE,127,0.0,2.7,23,0.00,,,0.00,VWS V14.00,2013-04-30 20:36:00,
2013-04-30 16:41:00,83.8,41.0,30.03,SSE,166,4.0,4.0,22,0.00,,,0.00,VWS V14.00,2013-04-30 20:41:00,
2013-04-30 16:46:00,83.7,44.2,30.03,SE,131,0.0,0.0,25,0.00,,,0.00,VWS V14.00,2013-04-30 20:46:00,
2013-04-30 16:51:00,82.6,42.2,30.03,ESE,122,3.6,4.0,24,0.00,,,0.00,VWS V14.00,2013-04-30 20:51:00,
2013-04-30 16:56:00,86.5,40.8,30.03,ESE,102,4.0,4.0,20,0.00,,,0.00,VWS V14.00,2013-04-30 20:56:00,
2013-04-30 17:01:00,86.5,40.8,30.03,South,183,4.0,4.0,20,0.00,,,0.00,VWS V14.00,2013-04-30 21:01:00,
2013-04-30 17:06:00,86.7,39.6,30.03,ESE,107,2.7,2.7,19,0.00,,,0.00,VWS V14.00,2013-04-30 21:06:00,
2013-04-30 17:11:00,86.5,40.8,30.03,ESE,103,0.0,0.0,20,0.00,,,0.00,VWS V14.00,2013-04-30 21:11:00,
2013-04-30 17:16:00,87.1,39.9,30.03,North,357,2.2,2.2,19,0.00,,,0.00,VWS V14.00,2013-04-30 21:16:00,
2013-04-30 17:21:00,88.2,40.8,30.03,NNE,25,0.0,0.0,19,0.00,,,0.00,VWS V14.00,2013-04-30 21:21:00,
2013-04-30 17:26:00,87.6,40.3,30.03,NE,43,0.0,0.0,19,0.00,,,0.00,VWS V14.00,2013-04-30 21:26:00,
2013-04-30 17:31:00,88.0,39.2,30.03,South,183,0.0,3.1,18,0.00,,,0.00,VWS V14.00,2013-04-30 21:31:00,
2013-04-30 17:36:00,87.4,40.2,30.03,ESE,111,0.0,2.2,19,0.00,,,0.00,VWS V14.00,2013-04-30 21:36:00,
2013-04-30 17:42:00,86.7,39.6,30.03,NNE,27,0.0,2.2,19,0.00,,,0.00,VWS V14.00,2013-04-30 21:42:00,
2013-04-30 17:47:00,87.1,39.9,30.03,NE,35,0.0,0.0,19,0.00,,,0.00,VWS V14.00,2013-04-30 21:47:00,
2013-04-30 17:52:00,88.3,39.5,30.03,SE,124,0.0,2.7,18,0.00,,,0.00,VWS V14.00,2013-04-30 21:52:00,
2013-04-30 17:57:00,89.6,40.5,30.03,SE,135,0.0,0.0,18,0.00,,,0.00,VWS V14.00,2013-04-30 21:57:00,
2013-04-30 18:02:00,88.3,39.5,30.03,NNW,344,0.0,5.4,18,0.00,,,0.00,VWS V14.00,2013-04-30 22:02:00,
2013-04-30 18:07:00,86.2,39.1,30.03,North,349,0.0,3.1,19,0.00,,,0.00,VWS V14.00,2013-04-30 22:07:00,
2013-04-30 18:12:00,86.4,40.6,30.03,ESE,115,2.2,5.4,20,0.00,,,0.00,VWS V14.00,2013-04-30 22:12:00,
2013-04-30 18:17:00,86.2,40.5,30.03,NNE,27,0.0,3.1,20,0.00,,,0.00,VWS V14.00,2013-04-30 22:17:00,
2013-04-30 18:22:00,85.8,40.2,30.03,ESE,106,0.0,5.4,20,0.00,,,0.00,VWS V14.00,2013-04-30 22:22:00,
2013-04-30 18:27:00,86.5,40.8,30.03,ESE,116,0.0,2.7,20,0.00,,,0.00,VWS V14.00,2013-04-30 22:27:00,
2013-04-30 18:32:00,86.7,40.9,30.03,ENE,76,0.0,0.0,20,0.00,,,0.00,VWS V14.00,2013-04-30 22:32:00,
2013-04-30 18:37:00,84.9,39.4,30.03,East,101,0.0,0.0,20,0.00,,,0.00,VWS V14.00,2013-04-30 22:37:00,
2013-04-30 18:42:00,83.5,41.8,30.03,North,357,2.7,2.7,23,0.00,,,0.00,VWS V14.00,2013-04-30 22:42:00,
2013-04-30 18:47:00,82.6,41.1,30.03,ESE,120,0.0,0.0,23,0.00,,,0.00,VWS V14.00,2013-04-30 22:47:00,
2013-04-30 18:52:00,80.4,44.4,30.03,ENE,71,0.0,0.0,28,0.00,,,0.00,VWS V14.00,2013-04-30 22:52:00,
2013-04-30 18:57:00,79.9,45.7,30.03,East,82,2.2,4.0,30,0.00,,,0.00,VWS V14.00,2013-04-30 22:57:00,
2013-04-30 19:03:00,78.8,44.8,30.03,East,99,0.0,2.7,30,0.00,,,0.00,VWS V14.00,2013-04-30 23:03:00,
2013-04-30 19:08:00,78.4,45.3,30.06,ESE,119,2.2,2.7,31,0.00,,,0.00,VWS V14.00,2013-04-30 23:08:00,
2013-04-30 19:13:00,77.9,45.7,30.06,ESE,104,2.2,2.7,32,0.00,,,0.00,VWS V14.00,2013-04-30 23:13:00,
2013-04-30 19:18:00,77.5,46.2,30.06,ESE,119,2.7,2.7,33,0.00,,,0.00,VWS V14.00,2013-04-30 23:18:00,
2013-04-30 19:23:00,77.2,45.9,30.03,SE,138,4.0,4.0,33,0.00,,,0.00,VWS V14.00,2013-04-30 23:23:00,
2013-04-30 19:28:00,76.3,45.1,30.03,East,83,0.0,3.1,33,0.00,,,0.00,VWS V14.00,2013-04-30 23:28:00,
2013-04-30 19:33:00,75.7,44.6,30.03,NNE,33,0.0,0.0,33,0.00,,,0.00,VWS V14.00,2013-04-30 23:33:00,
2013-04-30 19:38:00,75.2,44.9,30.06,East,86,0.0,0.0,34,0.00,,,0.00,VWS V14.00,2013-04-30 23:38:00,
2013-04-30 19:43:00,74.8,45.4,30.06,ESE,122,0.0,0.0,35,0.00,,,0.00,VWS V14.00,2013-04-30 23:43:00,
2013-04-30 19:48:00,74.3,45.7,30.06,ESE,112,0.0,0.0,36,0.00,,,0.00,VWS V14.00,2013-04-30 23:48:00,
2013-04-30 19:53:00,73.8,46.6,30.06,ESE,112,0.0,0.0,38,0.00,,,0.00,VWS V14.00,2013-04-30 23:53:00,
2013-04-30 19:58:00,73.2,47.5,30.06,ENE,76,0.0,0.0,40,0.00,,,0.00,VWS V14.00,2013-04-30 23:58:00,
2013-04-30 20:03:00,72.9,47.2,30.06,ENE,76,0.0,0.0,40,0.00,,,0.00,VWS V14.00,2013-05-01 00:03:00,
2013-04-30 20:08:00,72.5,48.1,30.06,ENE,75,0.0,0.0,42,0.00,,,0.00,VWS V14.00,2013-05-01 00:08:00,
2013-04-30 20:13:00,72.3,48.6,30.06,ENE,75,0.0,0.0,43,0.00,,,0.00,VWS V14.00,2013-05-01 00:13:00,
2013-04-30 20:18:00,72.0,48.3,30.06,ENE,74,0.0,0.0,43,0.00,,,0.00,VWS V14.00,2013-05-01 00:18:00,
2013-04-30 20:23:00,71.6,48.6,30.06,ENE,59,0.0,0.0,44,0.00,,,0.00,VWS V14.00,2013-05-01 00:23:00,
2013-04-30 20:28:00,71.4,49.0,30.06,ENE,59,0.0,0.0,45,0.00,,,0.00,VWS V14.00,2013-05-01 00:28:00,
2013-04-30 20:34:00,71.1,48.7,30.06,ENE,74,0.0,0.0,45,0.00,,,0.00,VWS V14.00,2013-05-01 00:34:00,
2013-04-30 20:39:00,70.9,49.1,30.06,ENE,73,0.0,0.0,46,0.00,,,0.00,VWS V14.00,2013-05-01 00:39:00,
2013-04-30 20:44:00,70.7,48.9,30.06,ENE,73,0.0,0.0,46,0.00,,,0.00,VWS V14.00,2013-05-01 00:44:00,
2013-04-30 20:49:00,70.5,49.3,30.06,ENE,74,0.0,0.0,47,0.00,,,0.00,VWS V14.00,2013-05-01 00:49:00,
2013-04-30 20:54:00,70.3,49.2,30.06,ENE,74,0.0,0.0,47,0.00,,,0.00,VWS V14.00,2013-05-01 00:54:00,
2013-04-30 20:59:00,70.2,49.0,30.06,ENE,74,0.0,0.0,47,0.00,,,0.00,VWS V14.00,2013-05-01 00:59:00,
2013-04-30 21:04:00,70.0,49.4,30.06,ENE,74,0.0,0.0,48,0.00,,,0.00,VWS V14.00,2013-05-01 01:04:00,
2013-04-30 21:09:00,69.6,49.1,30.06,ENE,73,0.0,0.0,48,0.00,,,0.00,VWS V14.00,2013-05-01 01:09:00,
2013-04-30 21:14:00,69.4,49.5,30.06,ENE,74,0.0,0.0,49,0.00,,,0.00,VWS V14.00,2013-05-01 01:14:00,
2013-04-30 21:19:00,69.1,49.1,30.06,ENE,74,0.0,0.0,49,0.00,,,0.00,VWS V14.00,2013-05-01 01:19:00,
2013-04-30 21:24:00,68.7,49.3,30.06,ENE,73,0.0,0.0,50,0.00,,,0.00,VWS V14.00,2013-05-01 01:24:00,
2013-04-30 21:29:00,68.5,49.7,30.06,ENE,73,0.0,0.0,51,0.00,,,0.00,VWS V14.00,2013-05-01 01:29:00,
2013-04-30 21:34:00,68.2,49.9,30.09,ENE,74,0.0,0.0,52,0.00,,,0.00,VWS V14.00,2013-05-01 01:34:00,
2013-04-30 21:39:00,68.0,50.8,30.09,ENE,73,0.0,0.0,54,0.00,,,0.00,VWS V14.00,2013-05-01 01:39:00,
2013-04-30 21:44:00,67.8,51.1,30.09,ENE,74,0.0,0.0,55,0.00,,,0.00,VWS V14.00,2013-05-01 01:44:00,
2013-04-30 21:49:00,67.5,51.2,30.09,ENE,73,0.0,0.0,56,0.00,,,0.00,VWS V14.00,2013-05-01 01:49:00,
2013-04-30 21:54:00,67.3,51.1,30.09,ENE,74,0.0,0.0,56,0.00,,,0.00,VWS V14.00,2013-05-01 01:54:00,
2013-04-30 21:59:00,67.1,51.4,30.09,ENE,74,0.0,0.0,57,0.00,,,0.00,VWS V14.00,2013-05-01 01:59:00,
2013-04-30 22:05:00,66.9,51.2,30.09,ENE,73,0.0,0.0,57,0.00,,,0.00,VWS V14.00,2013-05-01 02:05:00,
2013-04-30 22:10:00,66.7,51.5,30.09,ENE,74,0.0,0.0,58,0.00,,,0.00,VWS V14.00,2013-05-01 02:10:00,
2013-04-30 22:15:00,66.6,51.3,30.09,ENE,74,0.0,0.0,58,0.00,,,0.00,VWS V14.00,2013-05-01 02:15:00,
2013-04-30 22:20:00,66.4,51.6,30.09,ENE,74,0.0,0.0,59,0.00,,,0.00,VWS V14.00,2013-05-01 02:20:00,
2013-04-30 22:25:00,66.2,52.8,30.09,ENE,74,0.0,0.0,62,0.00,,,0.00,VWS V14.00,2013-05-01 02:25:00,
2013-04-30 22:30:00,66.2,54.1,30.09,ENE,74,0.0,0.0,65,0.00,,,0.00,VWS V14.00,2013-05-01 02:30:00,
2013-04-30 22:35:00,66.2,54.1,30.09,ENE,73,0.0,0.0,65,0.00,,,0.00,VWS V14.00,2013-05-01 02:35:00,
2013-04-30 22:40:00,66.0,54.3,30.09,ENE,74,0.0,0.0,66,0.00,,,0.00,VWS V14.00,2013-05-01 02:40:00,
2013-04-30 22:45:00,65.8,54.2,30.09,ENE,74,0.0,0.0,66,0.00,,,0.00,VWS V14.00,2013-05-01 02:45:00,
2013-04-30 22:50:00,65.7,53.6,30.12,ENE,73,0.0,0.0,65,0.00,,,0.00,VWS V14.00,2013-05-01 02:50:00,
2013-04-30 22:55:00,65.5,53.4,30.12,ENE,74,0.0,0.0,65,0.00,,,0.00,VWS V14.00,2013-05-01 02:55:00,
2013-04-30 23:00:00,65.3,53.2,30.12,ENE,73,0.0,0.0,65,0.00,,,0.00,VWS V14.00,2013-05-01 03:00:00,
2013-04-30 23:05:00,65.1,53.1,30.12,ENE,73,0.0,0.0,65,0.00,,,0.00,VWS V14.00,2013-05-01 03:05:00,
2013-04-30 23:10:00,65.1,53.1,30.12,ENE,74,0.0,0.0,65,0.00,,,0.00,VWS V14.00,2013-05-01 03:10:00,
2013-04-30 23:15:00,64.8,52.7,30.12,ENE,74,0.0,0.0,65,0.00,,,0.00,VWS V14.00,2013-05-01 03:15:00,
2013-04-30 23:20:00,64.8,53.2,30.12,ENE,74,0.0,0.0,66,0.00,,,0.00,VWS V14.00,2013-05-01 03:20:00,
2013-04-30 23:25:00,64.8,53.6,30.12,ENE,74,0.0,0.0,67,0.00,,,0.00,VWS V14.00,2013-05-01 03:25:00,
2013-04-30 23:31:00,64.6,53.4,30.12,ENE,74,0.0,0.0,67,0.00,,,0.00,VWS V14.00,2013-05-01 03:31:00,
2013-04-30 23:36:00,64.6,53.4,30.12,ENE,73,0.0,0.0,67,0.00,,,0.00,VWS V14.00,2013-05-01 03:36:00,
2013-04-30 23:41:00,64.4,53.6,30.12,ENE,74,0.0,0.0,68,0.00,,,0.00,VWS V14.00,2013-05-01 03:41:00,
2013-04-30 23:46:00,64.4,53.6,30.12,ENE,74,0.0,0.0,68,0.00,,,0.00,VWS V14.00,2013-05-01 03:46:00,
2013-04-30 23:51:00,64.4,53.6,30.12,ENE,74,0.0,0.0,68,0.00,,,0.00,VWS V14.00,2013-05-01 03:51:00,
2013-04-30 23:56:00,64.4,53.6,30.12,ENE,74,0.0,0.0,68,0.00,,,0.00,VWS V14.00,2013-05-01 03:56:00,